sensor_id;sensor_type;location;lat;lon;timestamp;pressure;altitude;pressure_sealevel;temperature;humidity
28935;BME280;16044;52.726;-2.108;2022-08-18T00:02:01;100705.88;;;16.48;76.71
28935;BME280;16044;52.726;-2.108;2022-08-18T00:04:34;100693.06;;;16.48;76.88
28935;BME280;16044;52.726;-2.108;2022-08-18T00:07:23;100702.72;;;16.44;77.15
28935;BME280;16044;52.726;-2.108;2022-08-18T00:09:51;100692.66;;;16.45;77.67
28935;BME280;16044;52.726;-2.108;2022-08-18T00:14:50;100680.00;;;16.44;78.37
28935;BME280;16044;52.726;-2.108;2022-08-18T00:17:19;100687.19;;;16.45;78.28
28935;BME280;16044;52.726;-2.108;2022-08-18T00:19:47;100686.31;;;16.44;78.02
28935;BME280;16044;52.726;-2.108;2022-08-18T00:22:18;100693.06;;;16.42;78.19
28935;BME280;16044;52.726;-2.108;2022-08-18T00:24:49;100677.47;;;16.42;78.04
28935;BME280;16044;52.726;-2.108;2022-08-18T00:27:26;100676.22;;;16.38;78.31
28935;BME280;16044;52.726;-2.108;2022-08-18T00:29:58;100661.50;;;16.39;78.24
28935;BME280;16044;52.726;-2.108;2022-08-18T00:32:39;100672.84;;;16.36;78.04
28935;BME280;16044;52.726;-2.108;2022-08-18T00:35:10;100669.72;;;16.39;78.09
28935;BME280;16044;52.726;-2.108;2022-08-18T00:37:40;100658.13;;;16.37;77.89
28935;BME280;16044;52.726;-2.108;2022-08-18T00:40:11;100655.81;;;16.34;78.04
28935;BME280;16044;52.726;-2.108;2022-08-18T00:42:49;100653.28;;;16.32;77.96
28935;BME280;16044;52.726;-2.108;2022-08-18T00:45:21;100649.09;;;16.30;78.05
28935;BME280;16044;52.726;-2.108;2022-08-18T00:47:51;100647.81;;;16.26;78.13
28935;BME280;16044;52.726;-2.108;2022-08-18T00:50:31;100650.97;;;16.23;78.00
28935;BME280;16044;52.726;-2.108;2022-08-18T00:53:14;100654.13;;;16.20;78.08
28935;BME280;16044;52.726;-2.108;2022-08-18T00:55:46;100640.44;;;16.20;78.30
28935;BME280;16044;52.726;-2.108;2022-08-18T00:58:22;100634.13;;;16.19;78.33
28935;BME280;16044;52.726;-2.108;2022-08-18T01:00:56;100640.88;;;16.16;78.44
28935;BME280;16044;52.726;-2.108;2022-08-18T01:03:26;100630.97;;;16.15;78.31
28935;BME280;16044;52.726;-2.108;2022-08-18T01:06:23;100620.25;;;16.14;78.52
28935;BME280;16044;52.726;-2.108;2022-08-18T01:08:54;100624.44;;;16.10;78.65
28935;BME280;16044;52.726;-2.108;2022-08-18T01:11:21;100621.91;;;16.08;78.58
28935;BME280;16044;52.726;-2.108;2022-08-18T01:13:48;100620.88;;;16.09;78.59
28935;BME280;16044;52.726;-2.108;2022-08-18T01:16:16;100628.66;;;16.06;78.74
28935;BME280;16044;52.726;-2.108;2022-08-18T01:19:03;100624.47;;;16.03;78.97
28935;BME280;16044;52.726;-2.108;2022-08-18T01:21:53;100630.34;;;16.00;79.11
28935;BME280;16044;52.726;-2.108;2022-08-18T01:24:33;100636.66;;;16.01;78.97
28935;BME280;16044;52.726;-2.108;2022-08-18T01:27:20;100644.00;;;16.00;78.87
28935;BME280;16044;52.726;-2.108;2022-08-18T01:29:48;100645.03;;;15.99;79.11
28935;BME280;16044;52.726;-2.108;2022-08-18T01:32:21;100643.38;;;15.98;79.12
28935;BME280;16044;52.726;-2.108;2022-08-18T01:34:50;100647.56;;;16.01;79.16
28935;BME280;16044;52.726;-2.108;2022-08-18T01:37:21;100651.81;;;16.03;79.19
28935;BME280;16044;52.726;-2.108;2022-08-18T01:39:49;100654.31;;;16.05;79.21
28935;BME280;16044;52.726;-2.108;2022-08-18T01:42:37;100655.16;;;16.05;79.07
28935;BME280;16044;52.726;-2.108;2022-08-18T01:45:06;100651.56;;;16.05;79.08
28935;BME280;16044;52.726;-2.108;2022-08-18T01:47:34;100652.63;;;16.04;79.19
28935;BME280;16044;52.726;-2.108;2022-08-18T01:50:22;100647.19;;;16.04;79.06
28935;BME280;16044;52.726;-2.108;2022-08-18T01:52:49;100645.47;;;16.03;79.25
28935;BME280;16044;52.726;-2.108;2022-08-18T01:55:19;100637.91;;;16.05;79.18
28935;BME280;16044;52.726;-2.108;2022-08-18T01:57:46;100629.94;;;16.03;79.29
28935;BME280;16044;52.726;-2.108;2022-08-18T02:00:16;100633.28;;;16.05;79.30
28935;BME280;16044;52.726;-2.108;2022-08-18T02:02:44;100633.72;;;16.02;79.36
28935;BME280;16044;52.726;-2.108;2022-08-18T02:05:38;100632.66;;;16.03;79.25
28935;BME280;16044;52.726;-2.108;2022-08-18T02:08:08;100626.34;;;16.03;79.37
28935;BME280;16044;52.726;-2.108;2022-08-18T02:10:38;100623.84;;;16.01;79.42
28935;BME280;16044;52.726;-2.108;2022-08-18T02:13:05;100616.88;;;15.98;79.46
28935;BME280;16044;52.726;-2.108;2022-08-18T02:15:33;100616.47;;;16.02;79.58
28935;BME280;16044;52.726;-2.108;2022-08-18T02:18:00;100621.50;;;15.98;79.56
28935;BME280;16044;52.726;-2.108;2022-08-18T02:20:27;100626.97;;;15.98;79.67
28935;BME280;16044;52.726;-2.108;2022-08-18T02:22:54;100623.63;;;15.96;79.72
28935;BME280;16044;52.726;-2.108;2022-08-18T02:25:24;100615.63;;;15.94;79.85
28935;BME280;16044;52.726;-2.108;2022-08-18T02:27:50;100620.25;;;15.94;79.88
28935;BME280;16044;52.726;-2.108;2022-08-18T02:30:18;100613.91;;;15.93;80.03
28935;BME280;16044;52.726;-2.108;2022-08-18T02:32:46;100610.97;;;15.95;79.88
28935;BME280;16044;52.726;-2.108;2022-08-18T02:35:13;100610.16;;;15.94;80.07
28935;BME280;16044;52.726;-2.108;2022-08-18T02:37:41;100609.72;;;15.91;80.18
28935;BME280;16044;52.726;-2.108;2022-08-18T02:40:09;100610.97;;;15.95;80.23
28935;BME280;16044;52.726;-2.108;2022-08-18T02:42:41;100601.75;;;15.96;80.01
28935;BME280;16044;52.726;-2.108;2022-08-18T02:45:09;100610.16;;;15.94;80.12
28935;BME280;16044;52.726;-2.108;2022-08-18T02:47:38;100604.47;;;15.96;80.02
28935;BME280;16044;52.726;-2.108;2022-08-18T02:50:08;100595.44;;;15.95;80.07
28935;BME280;16044;52.726;-2.108;2022-08-18T02:52:36;100591.44;;;15.98;80.12
28935;BME280;16044;52.726;-2.108;2022-08-18T02:55:06;100594.81;;;16.00;79.94
28935;BME280;16044;52.726;-2.108;2022-08-18T02:57:34;100585.34;;;15.96;80.32
28935;BME280;16044;52.726;-2.108;2022-08-18T03:00:01;100579.88;;;15.96;80.53
28935;BME280;16044;52.726;-2.108;2022-08-18T03:02:28;100577.34;;;15.94;80.50
28935;BME280;16044;52.726;-2.108;2022-08-18T03:04:57;100575.47;;;15.88;80.66
28935;BME280;16044;52.726;-2.108;2022-08-18T03:07:24;100562.63;;;15.89;80.69
28935;BME280;16044;52.726;-2.108;2022-08-18T03:09:51;100564.31;;;15.90;80.73
28935;BME280;16044;52.726;-2.108;2022-08-18T03:12:17;100560.94;;;15.88;80.73
28935;BME280;16044;52.726;-2.108;2022-08-18T03:14:44;100562.00;;;15.87;80.62
28935;BME280;16044;52.726;-2.108;2022-08-18T03:17:12;100564.72;;;15.87;80.87
28935;BME280;16044;52.726;-2.108;2022-08-18T03:19:40;100565.13;;;15.84;81.15
28935;BME280;16044;52.726;-2.108;2022-08-18T03:22:13;100571.03;;;15.87;81.01
28935;BME280;16044;52.726;-2.108;2022-08-18T03:24:55;100566.63;;;15.86;81.09
28935;BME280;16044;52.726;-2.108;2022-08-18T03:27:22;100550.00;;;15.88;81.00
28935;BME280;16044;52.726;-2.108;2022-08-18T03:29:49;100548.94;;;15.89;81.05
28935;BME280;16044;52.726;-2.108;2022-08-18T03:32:16;100551.69;;;15.89;81.11
28935;BME280;16044;52.726;-2.108;2022-08-18T03:34:44;100538.44;;;15.92;80.87
28935;BME280;16044;52.726;-2.108;2022-08-18T03:37:11;100543.28;;;15.90;81.06
28935;BME280;16044;52.726;-2.108;2022-08-18T03:39:41;100533.59;;;15.88;81.11
28935;BME280;16044;52.726;-2.108;2022-08-18T03:42:08;100534.88;;;15.85;81.54
28935;BME280;16044;52.726;-2.108;2022-08-18T03:44:36;100524.34;;;15.89;81.23
28935;BME280;16044;52.726;-2.108;2022-08-18T03:47:08;100527.50;;;15.86;81.09
28935;BME280;16044;52.726;-2.108;2022-08-18T03:49:35;100520.38;;;15.85;81.18
28935;BME280;16044;52.726;-2.108;2022-08-18T03:52:07;100512.56;;;15.82;81.28
28935;BME280;16044;52.726;-2.108;2022-08-18T03:54:35;100520.97;;;15.80;81.40
28935;BME280;16044;52.726;-2.108;2022-08-18T03:57:07;100526.03;;;15.83;81.35
28935;BME280;16044;52.726;-2.108;2022-08-18T03:59:35;100523.09;;;15.78;81.70
28935;BME280;16044;52.726;-2.108;2022-08-18T04:02:03;100534.03;;;15.78;81.71
28935;BME280;16044;52.726;-2.108;2022-08-18T04:04:31;100541.81;;;15.81;81.60
28935;BME280;16044;52.726;-2.108;2022-08-18T04:07:01;100534.44;;;15.82;81.59
28935;BME280;16044;52.726;-2.108;2022-08-18T04:09:37;100535.06;;;15.84;81.65
28935;BME280;16044;52.726;-2.108;2022-08-18T04:12:07;100531.72;;;15.82;81.74
28935;BME280;16044;52.726;-2.108;2022-08-18T04:14:45;100534.03;;;15.85;81.77
28935;BME280;16044;52.726;-2.108;2022-08-18T04:17:19;100541.59;;;15.83;81.94
28935;BME280;16044;52.726;-2.108;2022-08-18T04:19:54;100534.66;;;15.87;81.91
28935;BME280;16044;52.726;-2.108;2022-08-18T04:22:22;100536.56;;;15.86;81.90
28935;BME280;16044;52.726;-2.108;2022-08-18T04:24:51;100542.44;;;15.90;81.83
28935;BME280;16044;52.726;-2.108;2022-08-18T04:27:20;100539.06;;;15.88;82.02
28935;BME280;16044;52.726;-2.108;2022-08-18T04:29:48;100545.38;;;15.88;82.00
28935;BME280;16044;52.726;-2.108;2022-08-18T04:32:15;100550.66;;;15.90;81.95
28935;BME280;16044;52.726;-2.108;2022-08-18T04:34:42;100542.00;;;15.93;81.87
28935;BME280;16044;52.726;-2.108;2022-08-18T04:37:10;100542.00;;;15.93;81.91
28935;BME280;16044;52.726;-2.108;2022-08-18T04:39:39;100544.75;;;15.93;82.01
28935;BME280;16044;52.726;-2.108;2022-08-18T04:42:06;100532.78;;;15.94;81.86
28935;BME280;16044;52.726;-2.108;2022-08-18T04:44:34;100541.81;;;15.94;81.98
28935;BME280;16044;52.726;-2.108;2022-08-18T04:47:04;100543.50;;;15.95;81.87
28935;BME280;16044;52.726;-2.108;2022-08-18T04:49:33;100544.94;;;15.91;82.10
28935;BME280;16044;52.726;-2.108;2022-08-18T04:52:02;100541.38;;;15.91;81.99
28935;BME280;16044;52.726;-2.108;2022-08-18T04:55:06;100547.47;;;15.93;82.04
28935;BME280;16044;52.726;-2.108;2022-08-18T04:57:34;100541.59;;;15.89;82.13
28935;BME280;16044;52.726;-2.108;2022-08-18T05:00:04;100539.47;;;15.91;82.15
28935;BME280;16044;52.726;-2.108;2022-08-18T05:02:32;100544.13;;;15.91;82.20
28935;BME280;16044;52.726;-2.108;2022-08-18T05:04:59;100543.72;;;15.94;82.08
28935;BME280;16044;52.726;-2.108;2022-08-18T05:07:28;100539.91;;;15.95;82.16
28935;BME280;16044;52.726;-2.108;2022-08-18T05:09:55;100531.06;;;15.93;82.17
28935;BME280;16044;52.726;-2.108;2022-08-18T05:12:23;100542.84;;;15.93;82.17
28935;BME280;16044;52.726;-2.108;2022-08-18T05:14:52;100531.50;;;15.96;82.12
28935;BME280;16044;52.726;-2.108;2022-08-18T05:17:22;100531.69;;;15.95;82.12
28935;BME280;16044;52.726;-2.108;2022-08-18T05:19:57;100535.06;;;15.97;81.99
28935;BME280;16044;52.726;-2.108;2022-08-18T05:22:27;100533.19;;;15.97;81.96
28935;BME280;16044;52.726;-2.108;2022-08-18T05:24:56;100535.69;;;15.99;81.99
28935;BME280;16044;52.726;-2.108;2022-08-18T05:27:23;100527.94;;;15.96;82.07
28935;BME280;16044;52.726;-2.108;2022-08-18T05:29:50;100526.03;;;15.96;82.12
28935;BME280;16044;52.726;-2.108;2022-08-18T05:32:17;100526.66;;;15.98;82.11
28935;BME280;16044;52.726;-2.108;2022-08-18T05:35:07;100519.72;;;15.96;82.11
28935;BME280;16044;52.726;-2.108;2022-08-18T05:40:25;100516.56;;;15.99;82.27
28935;BME280;16044;52.726;-2.108;2022-08-18T05:42:53;100518.25;;;16.00;82.28
28935;BME280;16044;52.726;-2.108;2022-08-18T05:45:23;100522.44;;;16.03;82.35
28935;BME280;16044;52.726;-2.108;2022-08-18T05:47:50;100522.69;;;16.01;82.31
28935;BME280;16044;52.726;-2.108;2022-08-18T05:50:19;100532.53;;;16.02;82.49
28935;BME280;16044;52.726;-2.108;2022-08-18T05:52:56;100520.56;;;16.03;82.31
28935;BME280;16044;52.726;-2.108;2022-08-18T05:55:33;100528.16;;;16.01;82.41
28935;BME280;16044;52.726;-2.108;2022-08-18T05:58:30;100531.28;;;16.05;82.39
28935;BME280;16044;52.726;-2.108;2022-08-18T06:01:04;100527.69;;;16.04;82.50
28935;BME280;16044;52.726;-2.108;2022-08-18T06:04:01;100524.34;;;16.09;82.34
28935;BME280;16044;52.726;-2.108;2022-08-18T06:06:32;100508.38;;;16.12;82.28
28935;BME280;16044;52.726;-2.108;2022-08-18T06:09:20;100524.13;;;16.10;82.47
28935;BME280;16044;52.726;-2.108;2022-08-18T06:11:54;100513.84;;;16.12;82.49
28935;BME280;16044;52.726;-2.108;2022-08-18T06:14:36;100522.66;;;16.14;82.60
28935;BME280;16044;52.726;-2.108;2022-08-18T06:17:35;100519.31;;;16.12;82.61
28935;BME280;16044;52.726;-2.108;2022-08-18T06:20:27;100520.09;;;16.20;82.57
28935;BME280;16044;52.726;-2.108;2022-08-18T06:23:07;100520.09;;;16.20;82.80
28935;BME280;16044;52.726;-2.108;2022-08-18T06:29:02;100518.00;;;16.22;82.78
28935;BME280;16044;52.726;-2.108;2022-08-18T06:38:34;100511.50;;;16.23;83.60
28935;BME280;16044;52.726;-2.108;2022-08-18T06:41:23;100501.38;;;16.30;83.51
28935;BME280;16044;52.726;-2.108;2022-08-18T06:44:18;100506.19;;;16.34;83.55
28935;BME280;16044;52.726;-2.108;2022-08-18T06:52:19;100509.13;;;16.33;83.98
28935;BME280;16044;52.726;-2.108;2022-08-18T06:54:51;100512.50;;;16.42;84.01
28935;BME280;16044;52.726;-2.108;2022-08-18T06:58:18;100514.19;;;16.43;84.09
28935;BME280;16044;52.726;-2.108;2022-08-18T07:00:26;100511.66;;;16.41;84.19
28935;BME280;16044;52.726;-2.108;2022-08-18T07:03:10;100509.34;;;16.45;84.27
28935;BME280;16044;52.726;-2.108;2022-08-18T07:08:34;100514.56;;;16.46;84.72
28935;BME280;16044;52.726;-2.108;2022-08-18T07:11:17;100515.41;;;16.53;84.49
28935;BME280;16044;52.726;-2.108;2022-08-18T07:13:58;100517.50;;;16.58;84.58
28935;BME280;16044;52.726;-2.108;2022-08-18T07:16:48;100512.44;;;16.62;84.44
28935;BME280;16044;52.726;-2.108;2022-08-18T07:19:28;100520.00;;;16.66;84.37
28935;BME280;16044;52.726;-2.108;2022-08-18T07:24:36;100505.66;;;16.71;84.28
28935;BME280;16044;52.726;-2.108;2022-08-18T07:27:14;100504.59;;;16.72;84.38
28935;BME280;16044;52.726;-2.108;2022-08-18T07:35:21;100507.72;;;16.82;84.20
28935;BME280;16044;52.726;-2.108;2022-08-18T07:37:54;100514.25;;;16.81;84.15
28935;BME280;16044;52.726;-2.108;2022-08-18T07:40:54;100507.53;;;16.84;84.18
28935;BME280;16044;52.726;-2.108;2022-08-18T07:44:10;100506.88;;;16.88;84.08
28935;BME280;16044;52.726;-2.108;2022-08-18T07:46:49;100507.28;;;16.92;83.86
28935;BME280;16044;52.726;-2.108;2022-08-18T07:49:23;100499.03;;;16.99;83.98
28935;BME280;16044;52.726;-2.108;2022-08-18T07:52:01;100501.34;;;17.02;83.78
28935;BME280;16044;52.726;-2.108;2022-08-18T07:54:43;100498.16;;;17.05;83.71
28935;BME280;16044;52.726;-2.108;2022-08-18T07:57:35;100489.50;;;17.08;83.62
28935;BME280;16044;52.726;-2.108;2022-08-18T08:00:20;100487.75;;;17.20;83.65
28935;BME280;16044;52.726;-2.108;2022-08-18T08:06:36;100496.03;;;17.39;83.21
28935;BME280;16044;52.726;-2.108;2022-08-18T08:12:23;100490.84;;;17.56;82.69
28935;BME280;16044;52.726;-2.108;2022-08-18T08:21:14;100500.88;;;17.68;81.50
28935;BME280;16044;52.726;-2.108;2022-08-18T08:23:53;100493.28;;;17.70;81.57
28935;BME280;16044;52.726;-2.108;2022-08-18T08:32:30;100480.31;;;17.84;81.21
28935;BME280;16044;52.726;-2.108;2022-08-18T08:38:18;100467.47;;;18.03;80.94
28935;BME280;16044;52.726;-2.108;2022-08-18T08:41:27;100465.84;;;18.21;80.78
28935;BME280;16044;52.726;-2.108;2022-08-18T08:44:10;100456.25;;;18.30;80.36
28935;BME280;16044;52.726;-2.108;2022-08-18T08:49:57;100453.44;;;18.67;79.01
28935;BME280;16044;52.726;-2.108;2022-08-18T08:52:40;100456.47;;;18.96;79.38
28935;BME280;16044;52.726;-2.108;2022-08-18T08:55:22;100454.41;;;19.21;79.06
28935;BME280;16044;52.726;-2.108;2022-08-18T09:00:37;100447.84;;;19.76;76.67
28935;BME280;16044;52.726;-2.108;2022-08-18T09:11:41;100438.28;;;20.55;70.51
28935;BME280;16044;52.726;-2.108;2022-08-18T09:21:04;100446.31;;;21.76;68.76
28935;BME280;16044;52.726;-2.108;2022-08-18T09:23:51;100438.72;;;22.06;67.18
28935;BME280;16044;52.726;-2.108;2022-08-18T09:38:21;100426.78;;;22.00;62.17
28935;BME280;16044;52.726;-2.108;2022-08-18T09:41:16;100425.41;;;21.80;62.89
28935;BME280;16044;52.726;-2.108;2022-08-18T09:44:08;100429.41;;;21.73;63.25
28935;BME280;16044;52.726;-2.108;2022-08-18T09:46:53;100435.38;;;21.65;63.28
28935;BME280;16044;52.726;-2.108;2022-08-18T09:51:57;100429.59;;;21.49;61.71
28935;BME280;16044;52.726;-2.108;2022-08-18T09:54:52;100431.28;;;21.50;63.29
28935;BME280;16044;52.726;-2.108;2022-08-18T09:57:29;100427.44;;;21.51;63.79
28935;BME280;16044;52.726;-2.108;2022-08-18T10:11:07;100416.38;;;21.17;64.34
28935;BME280;16044;52.726;-2.108;2022-08-18T10:14:16;100400.41;;;21.19;64.48
28935;BME280;16044;52.726;-2.108;2022-08-18T10:20:24;100394.00;;;21.48;64.48
28935;BME280;16044;52.726;-2.108;2022-08-18T10:22:59;100390.00;;;21.55;64.21
28935;BME280;16044;52.726;-2.108;2022-08-18T10:25:42;100385.16;;;21.63;63.74
28935;BME280;16044;52.726;-2.108;2022-08-18T10:31:17;100374.13;;;21.85;63.03
28935;BME280;16044;52.726;-2.108;2022-08-18T10:36:59;100371.97;;;22.09;63.59
28935;BME280;16044;52.726;-2.108;2022-08-18T10:42:23;100364.38;;;22.21;60.29
28935;BME280;16044;52.726;-2.108;2022-08-18T10:45:28;100357.34;;;22.30;61.91
28935;BME280;16044;52.726;-2.108;2022-08-18T10:48:26;100355.19;;;22.32;61.41
28935;BME280;16044;52.726;-2.108;2022-08-18T10:53:44;100368.84;;;22.22;59.21
28935;BME280;16044;52.726;-2.108;2022-08-18T11:06:07;100391.16;;;21.59;60.90
28935;BME280;16044;52.726;-2.108;2022-08-18T11:08:49;100385.56;;;21.54;60.96
28935;BME280;16044;52.726;-2.108;2022-08-18T11:11:27;100377.19;;;21.49;61.14
28935;BME280;16044;52.726;-2.108;2022-08-18T11:18:00;100375.69;;;21.58;61.44
28935;BME280;16044;52.726;-2.108;2022-08-18T11:20:36;100361.16;;;21.63;60.25
28935;BME280;16044;52.726;-2.108;2022-08-18T11:23:14;100355.09;;;21.66;60.69
28935;BME280;16044;52.726;-2.108;2022-08-18T11:25:43;100355.97;;;21.67;61.30
28935;BME280;16044;52.726;-2.108;2022-08-18T11:28:15;100353.44;;;21.65;60.84
28935;BME280;16044;52.726;-2.108;2022-08-18T11:31:03;100339.78;;;21.53;61.47
28935;BME280;16044;52.726;-2.108;2022-08-18T11:33:32;100345.31;;;21.41;62.04
28935;BME280;16044;52.726;-2.108;2022-08-18T11:36:03;100351.22;;;21.45;62.25
28935;BME280;16044;52.726;-2.108;2022-08-18T11:38:30;100335.53;;;21.46;62.67
28935;BME280;16044;52.726;-2.108;2022-08-18T11:41:18;100337.00;;;21.53;61.85
28935;BME280;16044;52.726;-2.108;2022-08-18T11:43:55;100338.13;;;21.74;62.73
28935;BME280;16044;52.726;-2.108;2022-08-18T11:46:30;100327.06;;;21.91;61.45
28935;BME280;16044;52.726;-2.108;2022-08-18T11:49:19;100335.53;;;22.07;60.79
28935;BME280;16044;52.726;-2.108;2022-08-18T11:52:21;100330.00;;;22.07;59.42
28935;BME280;16044;52.726;-2.108;2022-08-18T11:55:01;100331.81;;;22.18;59.96
28935;BME280;16044;52.726;-2.108;2022-08-18T11:57:52;100331.19;;;22.33;59.72
28935;BME280;16044;52.726;-2.108;2022-08-18T12:06:08;100313.72;;;22.54;58.43
28935;BME280;16044;52.726;-2.108;2022-08-18T12:09:00;100317.63;;;22.58;58.47
28935;BME280;16044;52.726;-2.108;2022-08-18T12:11:33;100311.22;;;22.53;59.07
28935;BME280;16044;52.726;-2.108;2022-08-18T12:14:16;100308.44;;;22.53;58.58
28935;BME280;16044;52.726;-2.108;2022-08-18T12:16:58;100312.06;;;22.53;58.51
28935;BME280;16044;52.726;-2.108;2022-08-18T12:19:45;100314.66;;;22.65;59.03
28935;BME280;16044;52.726;-2.108;2022-08-18T12:22:16;100306.78;;;22.79;58.78
28935;BME280;16044;52.726;-2.108;2022-08-18T12:24:48;100301.69;;;22.98;58.44
28935;BME280;16044;52.726;-2.108;2022-08-18T12:27:19;100295.75;;;23.11;57.97
28935;BME280;16044;52.726;-2.108;2022-08-18T12:29:49;100296.09;;;23.20;57.50
28935;BME280;16044;52.726;-2.108;2022-08-18T12:32:19;100289.19;;;23.23;56.06
28935;BME280;16044;52.726;-2.108;2022-08-18T12:35:09;100297.47;;;23.23;55.75
28935;BME280;16044;52.726;-2.108;2022-08-18T12:37:43;100297.75;;;23.21;56.40
28935;BME280;16044;52.726;-2.108;2022-08-18T12:40:31;100295.06;;;23.31;56.90
28935;BME280;16044;52.726;-2.108;2022-08-18T12:43:18;100294.91;;;23.48;56.96
28935;BME280;16044;52.726;-2.108;2022-08-18T12:45:46;100301.91;;;23.61;56.68
28935;BME280;16044;52.726;-2.108;2022-08-18T12:48:13;100292.81;;;23.71;55.58
28935;BME280;16044;52.726;-2.108;2022-08-18T12:50:41;100302.34;;;23.90;55.43
28935;BME280;16044;52.726;-2.108;2022-08-18T12:53:22;100292.16;;;24.01;54.55
28935;BME280;16044;52.726;-2.108;2022-08-18T12:56:06;100303.50;;;24.10;54.21
28935;BME280;16044;52.726;-2.108;2022-08-18T12:58:45;100296.59;;;24.18;54.42
28935;BME280;16044;52.726;-2.108;2022-08-18T13:01:12;100296.94;;;24.31;54.00
28935;BME280;16044;52.726;-2.108;2022-08-18T13:03:43;100296.66;;;24.28;52.43
28935;BME280;16044;52.726;-2.108;2022-08-18T13:06:35;100302.19;;;24.28;53.52
28935;BME280;16044;52.726;-2.108;2022-08-18T13:09:06;100297.19;;;24.25;53.22
28935;BME280;16044;52.726;-2.108;2022-08-18T13:11:54;100298.28;;;24.19;53.36
28935;BME280;16044;52.726;-2.108;2022-08-18T13:14:25;100301.34;;;24.22;53.63
28935;BME280;16044;52.726;-2.108;2022-08-18T13:16:52;100301.38;;;24.27;54.06
28935;BME280;16044;52.726;-2.108;2022-08-18T13:19:20;100303.59;;;24.36;53.73
28935;BME280;16044;52.726;-2.108;2022-08-18T13:21:47;100305.53;;;24.40;53.81
28935;BME280;16044;52.726;-2.108;2022-08-18T13:24:15;100292.25;;;24.42;53.94
28935;BME280;16044;52.726;-2.108;2022-08-18T13:26:48;100290.06;;;24.44;54.00
28935;BME280;16044;52.726;-2.108;2022-08-18T13:29:17;100286.44;;;24.44;54.06
28935;BME280;16044;52.726;-2.108;2022-08-18T13:31:45;100285.09;;;24.51;53.48
28935;BME280;16044;52.726;-2.108;2022-08-18T13:34:20;100287.56;;;24.43;53.62
28935;BME280;16044;52.726;-2.108;2022-08-18T13:36:49;100277.91;;;24.61;53.20
28935;BME280;16044;52.726;-2.108;2022-08-18T13:39:21;100278.19;;;24.69;53.34
28935;BME280;16044;52.726;-2.108;2022-08-18T13:41:52;100260.19;;;24.77;52.77
28935;BME280;16044;52.726;-2.108;2022-08-18T13:44:20;100259.09;;;24.94;51.65
28935;BME280;16044;52.726;-2.108;2022-08-18T13:46:51;100261.56;;;24.85;52.05
28935;BME280;16044;52.726;-2.108;2022-08-18T13:49:22;100259.34;;;24.92;52.20
28935;BME280;16044;52.726;-2.108;2022-08-18T13:51:56;100258.53;;;24.86;52.41
28935;BME280;16044;52.726;-2.108;2022-08-18T13:54:30;100255.47;;;24.88;51.82
28935;BME280;16044;52.726;-2.108;2022-08-18T13:57:01;100248.81;;;24.89;51.92
28935;BME280;16044;52.726;-2.108;2022-08-18T13:59:32;100243.84;;;24.81;51.28
28935;BME280;16044;52.726;-2.108;2022-08-18T14:02:03;100243.28;;;24.79;51.21
28935;BME280;16044;52.726;-2.108;2022-08-18T14:04:34;100248.25;;;24.66;51.32
28935;BME280;16044;52.726;-2.108;2022-08-18T14:07:05;100246.56;;;24.45;52.17
28935;BME280;16044;52.726;-2.108;2022-08-18T14:09:37;100234.63;;;24.34;52.47
28935;BME280;16044;52.726;-2.108;2022-08-18T14:12:23;100237.13;;;24.25;51.94
28935;BME280;16044;52.726;-2.108;2022-08-18T14:14:57;100241.50;;;24.11;53.08
28935;BME280;16044;52.726;-2.108;2022-08-18T14:17:25;100241.47;;;23.96;53.67
28935;BME280;16044;52.726;-2.108;2022-08-18T14:19:53;100234.78;;;23.86;53.90
28935;BME280;16044;52.726;-2.108;2022-08-18T14:22:49;100234.66;;;23.66;54.07
28935;BME280;16044;52.726;-2.108;2022-08-18T14:25:36;100233.44;;;23.41;55.08
28935;BME280;16044;52.726;-2.108;2022-08-18T14:28:25;100221.00;;;23.44;55.54
28935;BME280;16044;52.726;-2.108;2022-08-18T14:30:55;100217.75;;;23.52;55.54
28935;BME280;16044;52.726;-2.108;2022-08-18T14:33:26;100219.69;;;23.57;55.42
28935;BME280;16044;52.726;-2.108;2022-08-18T14:36:15;100223.03;;;23.64;55.36
28935;BME280;16044;52.726;-2.108;2022-08-18T14:38:43;100215.63;;;23.74;55.37
28935;BME280;16044;52.726;-2.108;2022-08-18T14:41:12;100210.66;;;23.82;55.56
28935;BME280;16044;52.726;-2.108;2022-08-18T14:43:40;100212.66;;;23.97;55.19
28935;BME280;16044;52.726;-2.108;2022-08-18T14:46:30;100208.78;;;23.98;55.19
28935;BME280;16044;52.726;-2.108;2022-08-18T14:48:58;100208.78;;;23.98;54.57
28935;BME280;16044;52.726;-2.108;2022-08-18T14:51:30;100206.06;;;24.03;54.48
28935;BME280;16044;52.726;-2.108;2022-08-18T14:54:00;100201.06;;;24.00;54.53
28935;BME280;16044;52.726;-2.108;2022-08-18T14:56:27;100201.88;;;24.00;54.55
28935;BME280;16044;52.726;-2.108;2022-08-18T14:58:58;100206.06;;;24.03;54.12
28935;BME280;16044;52.726;-2.108;2022-08-18T15:01:25;100201.59;;;23.91;54.36
28935;BME280;16044;52.726;-2.108;2022-08-18T15:03:52;100211.25;;;23.89;54.83
28935;BME280;16044;52.726;-2.108;2022-08-18T15:06:20;100194.00;;;23.71;54.19
28935;BME280;16044;52.726;-2.108;2022-08-18T15:08:52;100198.69;;;23.66;54.45
28935;BME280;16044;52.726;-2.108;2022-08-18T15:11:22;100193.69;;;23.63;54.36
28935;BME280;16044;52.726;-2.108;2022-08-18T15:13:50;100191.97;;;23.51;55.03
28935;BME280;16044;52.726;-2.108;2022-08-18T15:16:21;100181.44;;;23.43;54.85
28935;BME280;16044;52.726;-2.108;2022-08-18T15:18:57;100181.97;;;23.40;54.70
28935;BME280;16044;52.726;-2.108;2022-08-18T15:21:26;100176.19;;;23.42;55.39
28935;BME280;16044;52.726;-2.108;2022-08-18T15:24:13;100187.25;;;23.42;55.85
28935;BME280;16044;52.726;-2.108;2022-08-18T15:27:05;100186.97;;;23.43;55.99
28935;BME280;16044;52.726;-2.108;2022-08-18T15:29:44;100183.13;;;23.49;55.68
28935;BME280;16044;52.726;-2.108;2022-08-18T15:32:12;100179.53;;;23.49;55.53
28935;BME280;16044;52.726;-2.108;2022-08-18T15:34:43;100175.13;;;23.48;56.04
28935;BME280;16044;52.726;-2.108;2022-08-18T15:37:18;100177.59;;;23.49;56.36